Time;durP1;ratioP1;P1;durP2;ratioP2;P2;SDS_P1;SDS_P2;PMS_P1;PMS_P2;Temp;Humidity;BMP_temperature;BMP_pressure;BME280_temperature;BME280_humidity;BME280_pressure;Samples;Min_cycle;Max_cycle;Signal;HPM_P1;HPM_P2
2022/01/07 00:00:39;;;;;;;10.32;5.32;;;;;;;;;;5054281;28;20099;-60
2022/01/07 00:03:07;;;;;;;10.65;5.45;;;;;;;;;;5053417;28;20041;-60
2022/01/07 00:05:33;;;;;;;9.57;5.18;;;;;;;;;;5054045;28;20761;-59
2022/01/07 00:07:59;;;;;;;11.50;5.28;;;;;;;;;;5054225;28;20041;-60
2022/01/07 00:10:26;;;;;;;9.68;5.65;;;;;;;;;;5053499;28;20118;-60
2022/01/07 00:12:52;;;;;;;8.98;5.43;;;;;;;;;;5054139;28;20458;-60
2022/01/07 00:15:19;;;;;;;8.98;5.10;;;;;;;;;;5053961;28;20094;-60
2022/01/07 00:17:45;;;;;;;9.75;5.30;;;;;;;;;;5053088;28;20045;-60
2022/01/07 00:20:14;;;;;;;9.40;5.57;;;;;;;;;;5054192;28;20459;-60
2022/01/07 00:22:41;;;;;;;8.77;5.22;;;;;;;;;;5054384;28;20106;-59
2022/01/07 00:25:08;;;;;;;10.50;4.82;;;;;;;;;;5053143;28;20049;-60
2022/01/07 00:27:34;;;;;;;11.68;5.15;;;;;;;;;;5054051;28;20048;-60
2022/01/07 00:30:01;;;;;;;11.77;5.20;;;;;;;;;;5053472;28;20044;-59
2022/01/07 00:32:27;;;;;;;8.68;4.78;;;;;;;;;;5053299;28;20048;-60
2022/01/07 00:34:53;;;;;;;8.80;4.63;;;;;;;;;;5053664;28;20053;-60
2022/01/07 00:37:21;;;;;;;8.02;4.93;;;;;;;;;;5053242;28;20041;-60
2022/01/07 00:39:48;;;;;;;7.68;4.80;;;;;;;;;;5053240;28;20480;-59
2022/01/07 00:42:15;;;;;;;10.02;5.20;;;;;;;;;;5053691;28;20052;-60
2022/01/07 00:44:41;;;;;;;11.93;5.30;;;;;;;;;;5052170;28;20549;-60
2022/01/07 00:47:07;;;;;;;10.60;4.35;;;;;;;;;;5053471;28;20041;-60
2022/01/07 00:49:34;;;;;;;11.43;4.88;;;;;;;;;;5053761;28;20127;-60
2022/01/07 00:52:01;;;;;;;10.30;4.75;;;;;;;;;;5052453;28;20073;-60
2022/01/07 00:54:28;;;;;;;9.68;4.72;;;;;;;;;;5053541;28;20148;-60
2022/01/07 00:56:55;;;;;;;11.55;5.10;;;;;;;;;;5052995;28;20049;-60
2022/01/07 00:59:21;;;;;;;8.35;5.00;;;;;;;;;;5052551;28;20048;-60
2022/01/07 01:01:48;;;;;;;8.73;4.38;;;;;;;;;;5052818;28;20090;-60
2022/01/07 01:04:14;;;;;;;9.10;4.60;;;;;;;;;;5053059;28;20053;-60
2022/01/07 01:06:41;;;;;;;8.98;4.40;;;;;;;;;;5052571;28;20044;-60
2022/01/07 01:09:07;;;;;;;8.80;4.22;;;;;;;;;;5053479;28;20048;-60
2022/01/07 01:11:35;;;;;;;9.60;4.93;;;;;;;;;;5053038;28;20048;-60
2022/01/07 01:14:01;;;;;;;8.98;4.63;;;;;;;;;;5052317;28;20154;-60
2022/01/07 01:16:28;;;;;;;8.40;4.20;;;;;;;;;;5052902;28;20049;-60
2022/01/07 01:18:54;;;;;;;7.72;4.28;;;;;;;;;;5052914;28;20455;-60
2022/01/07 01:21:20;;;;;;;10.70;4.72;;;;;;;;;;5052113;28;20049;-60
2022/01/07 01:23:46;;;;;;;8.90;4.72;;;;;;;;;;5052751;28;20045;-60
2022/01/07 01:26:13;;;;;;;10.07;4.82;;;;;;;;;;5052655;28;20075;-60
2022/01/07 01:28:41;;;;;;;7.57;4.43;;;;;;;;;;5052355;28;20140;-59
2022/01/07 01:31:07;;;;;;;7.88;4.18;;;;;;;;;;5052466;28;20044;-60
2022/01/07 01:33:34;;;;;;;8.48;4.50;;;;;;;;;;5051956;28;20532;-60
2022/01/07 01:36:00;;;;;;;8.00;4.88;;;;;;;;;;5052473;28;20045;-60
2022/01/07 01:38:27;;;;;;;10.38;5.10;;;;;;;;;;5052444;28;20041;-60
2022/01/07 01:40:54;;;;;;;8.20;4.38;;;;;;;;;;5051454;28;20411;-60
2022/01/07 01:43:20;;;;;;;11.75;4.38;;;;;;;;;;5052545;28;20049;-60
2022/01/07 01:45:47;;;;;;;10.95;4.47;;;;;;;;;;5052156;28;20049;-60
2022/01/07 01:48:14;;;;;;;8.35;4.20;;;;;;;;;;5051639;28;20110;-60
2022/01/07 01:50:40;;;;;;;8.95;4.40;;;;;;;;;;5052386;28;20148;-60
2022/01/07 01:53:06;;;;;;;6.45;4.25;;;;;;;;;;5051875;28;20447;-60
2022/01/07 01:55:32;;;;;;;8.65;4.70;;;;;;;;;;5051308;28;20095;-60
2022/01/07 01:57:59;;;;;;;9.40;4.45;;;;;;;;;;5051318;28;20049;-60
2022/01/07 02:00:26;;;;;;;10.40;4.57;;;;;;;;;;5052143;28;20041;-60
2022/01/07 02:02:53;;;;;;;7.18;4.55;;;;;;;;;;5051165;28;20098;-60
2022/01/07 02:05:20;;;;;;;7.40;3.92;;;;;;;;;;5051835;28;20482;-60
2022/01/07 02:07:46;;;;;;;7.68;4.35;;;;;;;;;;5051602;28;20090;-60
2022/01/07 02:10:13;;;;;;;8.40;4.43;;;;;;;;;;5051205;28;20048;-60
2022/01/07 02:12:40;;;;;;;6.97;4.63;;;;;;;;;;5052040;28;20095;-60
2022/01/07 02:15:07;;;;;;;6.80;3.90;;;;;;;;;;5051849;28;20044;-60
2022/01/07 02:17:33;;;;;;;8.05;4.35;;;;;;;;;;5051172;28;20049;-60
2022/01/07 02:20:00;;;;;;;8.63;4.57;;;;;;;;;;5051606;28;20094;-60
2022/01/07 02:22:27;;;;;;;8.30;4.15;;;;;;;;;;5051651;28;20450;-60
2022/01/07 02:24:54;;;;;;;5.90;3.78;;;;;;;;;;5050675;28;20091;-60
2022/01/07 02:27:21;;;;;;;8.45;4.22;;;;;;;;;;5051612;28;20436;-60
2022/01/07 02:29:48;;;;;;;6.05;3.70;;;;;;;;;;5050568;28;20049;-60
2022/01/07 02:32:14;;;;;;;7.72;4.20;;;;;;;;;;5051591;28;20041;-60
2022/01/07 02:34:41;;;;;;;6.53;4.13;;;;;;;;;;5051563;28;20098;-60
2022/01/07 02:37:08;;;;;;;8.23;4.00;;;;;;;;;;5050751;28;20099;-60
2022/01/07 02:39:34;;;;;;;7.47;4.32;;;;;;;;;;5051560;28;20045;-59
2022/01/07 02:42:01;;;;;;;8.95;4.22;;;;;;;;;;5051316;28;20515;-60
2022/01/07 02:44:27;;;;;;;8.10;4.47;;;;;;;;;;5050490;28;20484;-60
2022/01/07 02:46:53;;;;;;;6.53;3.80;;;;;;;;;;5051194;28;20076;-60
2022/01/07 02:49:20;;;;;;;6.55;3.80;;;;;;;;;;5051162;28;20049;-60
2022/01/07 02:51:46;;;;;;;9.45;3.90;;;;;;;;;;5050190;28;20041;-59
2022/01/07 02:54:14;;;;;;;6.40;3.92;;;;;;;;;;5051026;28;20380;-60
2022/01/07 02:56:41;;;;;;;9.32;3.72;;;;;;;;;;5051377;28;20045;-59
2022/01/07 02:59:08;;;;;;;8.27;4.13;;;;;;;;;;5050314;28;20045;-60
2022/01/07 03:01:34;;;;;;;6.93;3.75;;;;;;;;;;5051218;28;20122;-59
2022/01/07 03:04:00;;;;;;;5.95;3.50;;;;;;;;;;5050671;28;20045;-60
2022/01/07 03:06:27;;;;;;;7.30;3.40;;;;;;;;;;5050244;28;20061;-60
2022/01/07 03:08:53;;;;;;;7.90;4.28;;;;;;;;;;5050324;28;20530;-60
2022/01/07 03:11:23;;;;;;;6.20;3.55;;;;;;;;;;5050997;28;20551;-60
2022/01/07 03:13:49;;;;;;;7.63;3.67;;;;;;;;;;5049985;28;20385;-60
2022/01/07 03:16:15;;;;;;;5.28;3.47;;;;;;;;;;5050951;28;20110;-60
2022/01/07 03:18:41;;;;;;;7.20;3.10;;;;;;;;;;5050930;28;20099;-60
2022/01/07 03:21:08;;;;;;;7.10;4.10;;;;;;;;;;5050079;28;20095;-60
2022/01/07 03:23:36;;;;;;;5.90;3.40;;;;;;;;;;5051287;28;20053;-60
2022/01/07 03:26:02;;;;;;;6.10;3.63;;;;;;;;;;5049889;28;20060;-60
2022/01/07 03:28:30;;;;;;;6.55;3.50;;;;;;;;;;5050890;28;20041;-60
2022/01/07 03:30:56;;;;;;;5.18;3.55;;;;;;;;;;5050275;28;20514;-60
2022/01/07 03:33:22;;;;;;;6.30;3.10;;;;;;;;;;5050108;28;20106;-60
2022/01/07 03:35:48;;;;;;;5.88;3.22;;;;;;;;;;5050732;28;20106;-60
2022/01/07 03:38:14;;;;;;;7.57;3.53;;;;;;;;;;5050970;28;20048;-60
2022/01/07 03:40:41;;;;;;;7.30;3.63;;;;;;;;;;5050069;28;20049;-60
2022/01/07 03:43:07;;;;;;;9.23;3.60;;;;;;;;;;5050875;28;20045;-60
2022/01/07 03:45:35;;;;;;;6.13;3.17;;;;;;;;;;5050511;28;20049;-59
2022/01/07 03:48:01;;;;;;;7.85;3.13;;;;;;;;;;5049754;28;20454;-60
2022/01/07 03:50:28;;;;;;;7.55;3.28;;;;;;;;;;5050651;28;20103;-60
2022/01/07 03:52:55;;;;;;;5.90;3.30;;;;;;;;;;5050381;28;20049;-60
2022/01/07 03:55:22;;;;;;;7.45;3.20;;;;;;;;;;5049913;28;20171;-60
2022/01/07 03:57:49;;;;;;;5.75;3.20;;;;;;;;;;5050399;28;20041;-60
2022/01/07 04:00:16;;;;;;;5.80;2.85;;;;;;;;;;5050386;28;20049;-60
2022/01/07 04:02:44;;;;;;;5.50;3.15;;;;;;;;;;5049565;28;20049;-60
2022/01/07 04:05:11;;;;;;;5.53;2.90;;;;;;;;;;5050216;28;20053;-59
2022/01/07 04:07:37;;;;;;;6.35;3.22;;;;;;;;;;5050720;28;20049;-60
2022/01/07 04:10:04;;;;;;;4.40;2.83;;;;;;;;;;5049614;28;20045;-60
2022/01/07 04:12:30;;;;;;;7.32;2.90;;;;;;;;;;5050344;28;20049;-60
2022/01/07 04:15:07;;;;;;;5.38;3.05;;;;;;;;;;5050172;28;20091;-60
2022/01/07 04:17:33;;;;;;;6.28;2.80;;;;;;;;;;5050054;28;20073;-60
2022/01/07 04:20:01;;;;;;;4.57;2.65;;;;;;;;;;5051566;28;20044;-60
2022/01/07 04:22:28;;;;;;;5.82;2.85;;;;;;;;;;5053306;28;20351;-60
2022/01/07 04:24:54;;;;;;;3.25;2.63;;;;;;;;;;5053420;28;20419;-60
2022/01/07 04:27:21;;;;;;;4.30;2.30;;;;;;;;;;5053423;28;20057;-60
2022/01/07 04:29:47;;;;;;;5.13;2.80;;;;;;;;;;5052887;28;20095;-60
2022/01/07 04:32:13;;;;;;;3.78;2.65;;;;;;;;;;5053724;28;20099;-59
2022/01/07 04:34:39;;;;;;;4.38;2.67;;;;;;;;;;5053950;28;20102;-60
2022/01/07 04:37:07;;;;;;;5.90;3.00;;;;;;;;;;5052745;28;20049;-60
2022/01/07 04:39:33;;;;;;;4.28;2.53;;;;;;;;;;5053772;28;20053;-60
2022/01/07 04:41:59;;;;;;;4.38;2.97;;;;;;;;;;5053293;28;20546;-60
2022/01/07 04:44:26;;;;;;;5.30;2.47;;;;;;;;;;5052752;28;20049;-60
2022/01/07 04:46:52;;;;;;;6.00;3.03;;;;;;;;;;5053240;28;20049;-60
2022/01/07 04:49:18;;;;;;;4.65;2.45;;;;;;;;;;5053725;28;20095;-60
2022/01/07 04:51:45;;;;;;;3.38;2.20;;;;;;;;;;5052361;28;20053;-60
2022/01/07 04:54:12;;;;;;;3.45;2.22;;;;;;;;;;5053481;28;20053;-60
2022/01/07 04:56:39;;;;;;;4.20;2.35;;;;;;;;;;5053414;28;20040;-60
2022/01/07 04:59:05;;;;;;;6.15;2.97;;;;;;;;;;5052164;28;20103;-60
2022/01/07 05:01:31;;;;;;;3.80;2.75;;;;;;;;;;5053446;28;20091;-60
2022/01/07 05:03:57;;;;;;;4.13;2.60;;;;;;;;;;5052845;28;20041;-60
2022/01/07 05:06:44;;;;;;;3.40;2.08;;;;;;;;;;5052462;28;20049;-60
2022/01/07 05:09:10;;;;;;;3.92;2.65;;;;;;;;;;5053088;28;20056;-60
2022/01/07 05:11:37;;;;;;;4.25;2.50;;;;;;;;;;5052836;28;20048;-60
2022/01/07 05:14:04;;;;;;;4.72;2.50;;;;;;;;;;5052870;28;20462;-60
2022/01/07 05:16:30;;;;;;;3.05;2.38;;;;;;;;;;5052992;28;20439;-59
2022/01/07 05:18:57;;;;;;;3.05;2.53;;;;;;;;;;5051733;28;20508;-59
2022/01/07 05:21:24;;;;;;;3.15;2.28;;;;;;;;;;5052972;28;20044;-60
2022/01/07 05:23:50;;;;;;;3.47;2.83;;;;;;;;;;5052493;28;20040;-60
2022/01/07 05:26:16;;;;;;;4.60;2.72;;;;;;;;;;5052294;28;20053;-60
2022/01/07 05:28:44;;;;;;;2.83;2.40;;;;;;;;;;5052434;28;20478;-60
2022/01/07 05:31:10;;;;;;;3.03;2.50;;;;;;;;;;5052419;28;20106;-60
2022/01/07 05:33:36;;;;;;;5.03;2.55;;;;;;;;;;5051930;28;20453;-60
2022/01/07 05:36:03;;;;;;;4.40;3.05;;;;;;;;;;5052464;28;20048;-60
2022/01/07 05:38:29;;;;;;;5.90;2.67;;;;;;;;;;5052379;28;20049;-60
2022/01/07 05:40:55;;;;;;;4.43;2.70;;;;;;;;;;5051819;28;20122;-60
2022/01/07 05:43:21;;;;;;;4.80;2.60;;;;;;;;;;5052412;28;20049;-60
2022/01/07 05:45:49;;;;;;;3.00;2.58;;;;;;;;;;5052233;28;20045;-61
2022/01/07 05:48:15;;;;;;;4.05;2.50;;;;;;;;;;5051566;28;20056;-60
2022/01/07 05:50:41;;;;;;;4.72;2.75;;;;;;;;;;5052437;28;20044;-60
2022/01/07 05:53:08;;;;;;;5.15;2.85;;;;;;;;;;5052065;28;20044;-60
2022/01/07 05:55:35;;;;;;;4.80;3.05;;;;;;;;;;5051702;28;20250;-60
2022/01/07 05:58:01;;;;;;;4.88;3.00;;;;;;;;;;5052113;28;20099;-60
2022/01/07 06:00:27;;;;;;;8.90;2.90;;;;;;;;;;5052084;28;20045;-60
2022/01/07 06:02:55;;;;;;;3.58;2.85;;;;;;;;;;5051280;28;20049;-60
2022/01/07 06:05:21;;;;;;;4.88;3.20;;;;;;;;;;5051660;28;20107;-60
2022/01/07 06:07:47;;;;;;;3.47;2.92;;;;;;;;;;5051261;28;20091;-60
2022/01/07 06:10:13;;;;;;;3.63;3.10;;;;;;;;;;5052102;28;20107;-60
2022/01/07 06:12:40;;;;;;;3.50;3.15;;;;;;;;;;5052205;28;20045;-60
2022/01/07 06:15:07;;;;;;;3.65;3.13;;;;;;;;;;5051007;28;20094;-60
2022/01/07 06:17:33;;;;;;;4.82;3.22;;;;;;;;;;5051860;28;20045;-60
2022/01/07 06:20:00;;;;;;;4.53;3.00;;;;;;;;;;5051434;28;20045;-60
2022/01/07 06:22:27;;;;;;;3.78;3.25;;;;;;;;;;5050886;28;20313;-60
2022/01/07 06:24:53;;;;;;;3.72;3.30;;;;;;;;;;5051426;28;20447;-60
2022/01/07 06:27:19;;;;;;;5.72;3.90;;;;;;;;;;5051504;28;20102;-60
2022/01/07 06:29:45;;;;;;;6.13;3.85;;;;;;;;;;5050508;28;20075;-60
2022/01/07 06:32:12;;;;;;;5.30;3.60;;;;;;;;;;5051496;28;20055;-60
2022/01/07 06:34:38;;;;;;;4.70;3.50;;;;;;;;;;5051339;28;20044;-60
2022/01/07 06:37:06;;;;;;;5.75;3.97;;;;;;;;;;5050697;28;20463;-60
2022/01/07 06:39:32;;;;;;;5.15;4.05;;;;;;;;;;5051511;28;20102;-60
2022/01/07 06:42:00;;;;;;;7.20;4.15;;;;;;;;;;5050715;28;20049;-60
2022/01/07 06:44:27;;;;;;;6.68;4.50;;;;;;;;;;5050582;28;20041;-60
2022/01/07 06:46:53;;;;;;;7.10;4.60;;;;;;;;;;5051045;28;20454;-60
2022/01/07 06:49:19;;;;;;;6.10;4.55;;;;;;;;;;5051037;28;20511;-60
2022/01/07 06:51:45;;;;;;;6.40;4.50;;;;;;;;;;5050377;28;20048;-60
2022/01/07 06:54:13;;;;;;;6.65;4.60;;;;;;;;;;5051349;28;20040;-60
2022/01/07 06:56:39;;;;;;;6.20;4.85;;;;;;;;;;5051154;28;20099;-60
2022/01/07 06:59:06;;;;;;;10.45;5.65;;;;;;;;;;5050161;28;20049;-60
2022/01/07 07:01:32;;;;;;;5.07;4.38;;;;;;;;;;5051047;28;20045;-60
2022/01/07 07:03:58;;;;;;;8.13;5.80;;;;;;;;;;5050324;28;20098;-60
2022/01/07 07:06:24;;;;;;;6.18;5.28;;;;;;;;;;5050940;28;20072;-60
2022/01/07 07:08:51;;;;;;;8.32;6.03;;;;;;;;;;5051010;28;20045;-60
2022/01/07 07:11:18;;;;;;;7.57;5.45;;;;;;;;;;5050243;28;20053;-60
2022/01/07 07:13:44;;;;;;;7.40;5.72;;;;;;;;;;5050807;28;20049;-60
2022/01/07 07:16:11;;;;;;;8.18;5.55;;;;;;;;;;5050905;28;20045;-60
2022/01/07 07:18:37;;;;;;;8.13;5.93;;;;;;;;;;5050243;28;20056;-61
2022/01/07 07:21:03;;;;;;;8.68;5.93;;;;;;;;;;5050748;28;20094;-60
2022/01/07 07:23:29;;;;;;;7.70;5.88;;;;;;;;;;5050892;28;20487;-60
2022/01/07 07:25:55;;;;;;;6.93;6.15;;;;;;;;;;5049709;28;20060;-60
2022/01/07 07:28:23;;;;;;;10.32;6.40;;;;;;;;;;5051037;28;20110;-60
2022/01/07 07:30:51;;;;;;;8.18;6.47;;;;;;;;;;5050429;28;20049;-60
2022/01/07 07:33:43;;;;;;;9.20;6.68;;;;;;;;;;5049971;28;20476;-60
2022/01/07 07:36:30;;;;;;;10.40;7.18;;;;;;;;;;5050791;28;20450;-60
2022/01/07 07:38:56;;;;;;;9.63;6.95;;;;;;;;;;5050674;28;20057;-60
2022/01/07 07:41:23;;;;;;;7.63;6.57;;;;;;;;;;5049756;28;20083;-60
2022/01/07 07:43:50;;;;;;;8.60;6.93;;;;;;;;;;5050481;28;20041;-60
2022/01/07 07:46:16;;;;;;;9.93;7.05;;;;;;;;;;5049844;28;20064;-60
2022/01/07 07:48:43;;;;;;;10.35;6.75;;;;;;;;;;5050430;28;20487;-60
2022/01/07 07:51:09;;;;;;;11.32;7.22;;;;;;;;;;5050955;28;20052;-60
2022/01/07 07:53:35;;;;;;;8.80;6.72;;;;;;;;;;5050016;28;20106;-60
2022/01/07 07:56:02;;;;;;;11.05;7.68;;;;;;;;;;5053446;28;20666;-60
2022/01/07 07:58:28;;;;;;;11.15;7.65;;;;;;;;;;5054855;28;20053;-60
2022/01/07 08:00:56;;;;;;;10.23;7.70;;;;;;;;;;5053657;28;20045;-60
2022/01/07 08:03:22;;;;;;;8.48;7.53;;;;;;;;;;5054614;28;20045;-60
2022/01/07 08:05:48;;;;;;;9.40;7.63;;;;;;;;;;5054046;28;20450;-61
2022/01/07 08:08:15;;;;;;;10.88;8.18;;;;;;;;;;5053542;28;20041;-59
2022/01/07 08:10:47;;;;;;;10.65;7.63;;;;;;;;;;5054448;28;20045;-59
2022/01/07 08:13:28;;;;;;;10.60;8.07;;;;;;;;;;5054631;28;20049;-59
2022/01/07 08:16:02;;;;;;;10.02;7.57;;;;;;;;;;5053331;28;20460;-59
2022/01/07 08:18:29;;;;;;;10.73;7.97;;;;;;;;;;5054143;28;20479;-59
2022/01/07 08:20:55;;;;;;;10.77;8.10;;;;;;;;;;5053689;28;20045;-59
2022/01/07 08:23:22;;;;;;;12.02;8.15;;;;;;;;;;5053372;28;20373;-59
2022/01/07 08:25:48;;;;;;;13.77;8.57;;;;;;;;;;5054030;28;20110;-59
2022/01/07 08:28:15;;;;;;;14.15;9.07;;;;;;;;;;5053833;28;20480;-59
2022/01/07 08:36:06;;;;;;;9.90;8.23;;;;;;;;;;5033209;28;20121;-59
2022/01/07 08:38:33;;;;;;;11.77;8.82;;;;;;;;;;5034033;28;20099;-59
2022/01/07 08:40:59;;;;;;;13.02;9.45;;;;;;;;;;5033661;28;20050;-59
2022/01/07 08:43:25;;;;;;;13.00;9.40;;;;;;;;;;5033006;28;20042;-59
2022/01/07 08:45:51;;;;;;;11.57;8.90;;;;;;;;;;5033434;28;20072;-58
2022/01/07 08:48:18;;;;;;;9.98;8.73;;;;;;;;;;5033902;28;20057;-59
2022/01/07 08:50:45;;;;;;;11.20;9.13;;;;;;;;;;5032969;28;20440;-59
2022/01/07 08:53:12;;;;;;;15.07;9.32;;;;;;;;;;5033733;28;20045;-59
2022/01/07 08:55:38;;;;;;;11.63;9.77;;;;;;;;;;5052302;28;20090;-59
2022/01/07 08:58:04;;;;;;;10.05;8.82;;;;;;;;;;5052047;28;20049;-60
2022/01/07 09:00:30;;;;;;;11.43;9.73;;;;;;;;;;5053513;28;20049;-59
2022/01/07 09:02:57;;;;;;;12.32;9.15;;;;;;;;;;5053158;28;20057;-59
2022/01/07 09:05:23;;;;;;;10.63;9.15;;;;;;;;;;5051933;28;20115;-59
2022/01/07 09:07:50;;;;;;;13.80;9.80;;;;;;;;;;5053179;28;20053;-60
2022/01/07 09:10:17;;;;;;;12.15;9.57;;;;;;;;;;5053322;28;20106;-59
2022/01/07 09:12:43;;;;;;;11.73;10.10;;;;;;;;;;5052225;28;20044;-60
2022/01/07 09:15:09;;;;;;;12.43;9.98;;;;;;;;;;5053021;28;20102;-62
2022/01/07 09:17:35;;;;;;;14.85;10.00;;;;;;;;;;5053166;28;20087;-60
2022/01/07 09:20:02;;;;;;;14.57;9.95;;;;;;;;;;5052693;28;20122;-60
2022/01/07 09:22:28;;;;;;;14.07;9.80;;;;;;;;;;5052990;28;20091;-60
2022/01/07 09:24:56;;;;;;;15.00;10.18;;;;;;;;;;5051917;28;20049;-61
2022/01/07 09:27:22;;;;;;;12.68;9.07;;;;;;;;;;5052917;28;20551;-61
2022/01/07 09:29:48;;;;;;;11.77;9.02;;;;;;;;;;5052484;28;20111;-61
2022/01/07 09:32:14;;;;;;;12.75;9.95;;;;;;;;;;5052315;28;20045;-61
2022/01/07 09:34:41;;;;;;;13.05;10.10;;;;;;;;;;5052848;28;20099;-60
2022/01/07 09:37:07;;;;;;;12.55;9.45;;;;;;;;;;5052859;28;20099;-61
2022/01/07 09:39:33;;;;;;;13.75;10.25;;;;;;;;;;5052051;28;20098;-61
2022/01/07 09:42:01;;;;;;;11.40;9.10;;;;;;;;;;5050534;28;20044;-61
2022/01/07 09:44:28;;;;;;;14.10;9.95;;;;;;;;;;5052381;28;20053;-61
2022/01/07 09:46:54;;;;;;;12.98;9.57;;;;;;;;;;5051754;28;20100;-61
2022/01/07 09:49:20;;;;;;;11.05;9.45;;;;;;;;;;5052609;28;20106;-61
2022/01/07 09:51:47;;;;;;;11.73;9.55;;;;;;;;;;5052096;28;20783;-61
2022/01/07 09:54:13;;;;;;;13.13;9.52;;;;;;;;;;5051671;28;20071;-61
2022/01/07 09:56:40;;;;;;;12.25;9.50;;;;;;;;;;5052332;28;20545;-61
2022/01/07 09:59:07;;;;;;;11.05;9.20;;;;;;;;;;5052316;28;20049;-61
2022/01/07 10:01:48;;;;;;;9.85;8.73;;;;;;;;;;5051568;28;20048;-61
2022/01/07 10:04:24;;;;;;;11.27;9.13;;;;;;;;;;5051529;28;20091;-61
2022/01/07 10:06:50;;;;;;;;;;;;;;;;;;5051822;28;20561;-61
2022/01/07 10:09:17;;;;;;;10.10;8.40;;;;;;;;;;5052212;28;19920;-61
2022/01/07 10:11:44;;;;;;;13.63;9.32;;;;;;;;;;5052011;28;20478;-61
2022/01/07 10:14:17;;;;;;;10.25;8.48;;;;;;;;;;5051636;28;20053;-61
2022/01/07 10:16:53;;;;;;;14.23;8.77;;;;;;;;;;5051221;28;20556;-60
2022/01/07 10:19:33;;;;;;;10.98;8.27;;;;;;;;;;5051725;28;20045;-61
2022/01/07 10:22:00;;;;;;;11.45;8.30;;;;;;;;;;5050697;28;20558;-61
2022/01/07 10:24:26;;;;;;;10.80;8.30;;;;;;;;;;5051752;28;20049;-61
2022/01/07 10:27:08;;;;;;;11.95;8.30;;;;;;;;;;5051553;28;20101;-61
2022/01/07 10:29:38;;;;;;;11.77;8.15;;;;;;;;;;5051065;28;20075;-60
2022/01/07 10:32:21;;;;;;;9.82;7.88;;;;;;;;;;5051115;28;20075;-60
2022/01/07 10:35:01;;;;;;;9.80;8.27;;;;;;;;;;5051583;28;20385;-60
2022/01/07 10:37:27;;;;;;;12.02;7.88;;;;;;;;;;5051554;28;20408;-61
2022/01/07 10:39:53;;;;;;;12.50;8.43;;;;;;;;;;5051458;28;20095;-60
2022/01/07 10:42:22;;;;;;;11.30;8.50;;;;;;;;;;5050679;28;20617;-60
2022/01/07 10:45:02;;;;;;;10.95;7.70;;;;;;;;;;5050894;28;20099;-60
2022/01/07 10:47:29;;;;;;;10.80;7.72;;;;;;;;;;5049274;28;20057;-60
2022/01/07 10:50:10;;;;;;;9.77;7.97;;;;;;;;;;5050158;28;20132;-61
2022/01/07 10:52:36;;;;;;;10.98;7.63;;;;;;;;;;5049875;28;20041;-60
2022/01/07 10:55:09;;;;;;;9.90;7.93;;;;;;;;;;5050720;28;20099;-60
2022/01/07 10:57:37;;;;;;;10.15;7.22;;;;;;;;;;5050564;28;20048;-60
2022/01/07 11:00:06;;;;;;;16.08;8.02;;;;;;;;;;5050949;28;20488;-60
2022/01/07 11:02:34;;;;;;;19.02;9.30;;;;;;;;;;5051327;28;20045;-59
2022/01/07 11:05:00;;;;;;;16.88;8.57;;;;;;;;;;5050178;28;20131;-60
2022/01/07 11:07:27;;;;;;;15.77;9.68;;;;;;;;;;5050834;28;20160;-59
2022/01/07 11:09:55;;;;;;;13.90;8.30;;;;;;;;;;5051100;28;20475;-60
2022/01/07 11:12:21;;;;;;;12.52;8.20;;;;;;;;;;5050354;28;20049;-59
2022/01/07 11:14:47;;;;;;;10.40;7.30;;;;;;;;;;5051147;28;20083;-59
2022/01/07 11:17:20;;;;;;;12.02;8.10;;;;;;;;;;5050342;28;20041;-59
2022/01/07 11:19:49;;;;;;;12.63;7.72;;;;;;;;;;5050833;28;20053;-60
2022/01/07 11:22:16;;;;;;;12.15;7.63;;;;;;;;;;5050993;28;20041;-60
2022/01/07 11:24:43;;;;;;;11.15;6.68;;;;;;;;;;5050280;28;20053;-57
2022/01/07 11:27:10;;;;;;;10.10;6.70;;;;;;;;;;5051281;28;20041;-57
2022/01/07 11:29:37;;;;;;;8.85;6.05;;;;;;;;;;5053280;28;20049;-57
2022/01/07 11:32:27;;;;;;;16.92;6.75;;;;;;;;;;5053756;28;20044;-57
2022/01/07 11:34:54;;;;;;;12.13;6.20;;;;;;;;;;5055291;28;20049;-60
2022/01/07 11:37:33;;;;;;;12.82;6.20;;;;;;;;;;5055166;28;20462;-60
2022/01/07 11:39:59;;;;;;;9.88;6.15;;;;;;;;;;5054192;28;20044;-60
2022/01/07 11:42:40;;;;;;;9.05;5.82;;;;;;;;;;5054923;28;20098;-60
2022/01/07 11:45:29;;;;;;;10.48;6.22;;;;;;;;;;5054656;28;20140;-60
2022/01/07 11:47:57;;;;;;;11.07;6.47;;;;;;;;;;5054328;28;20492;-60
2022/01/07 11:50:23;;;;;;;15.57;7.13;;;;;;;;;;5054843;28;20045;-60
2022/01/07 11:52:55;;;;;;;14.52;7.25;;;;;;;;;;5053475;28;20049;-60
2022/01/07 11:55:27;;;;;;;16.73;7.80;;;;;;;;;;5054821;28;20045;-60
2022/01/07 11:57:54;;;;;;;14.05;6.50;;;;;;;;;;5053909;28;20140;-61
2022/01/07 12:00:39;;;;;;;12.85;5.80;;;;;;;;;;5053954;28;20052;-61
2022/01/07 12:03:06;;;;;;;14.13;5.15;;;;;;;;;;5054323;28;20099;-59
2022/01/07 12:05:33;;;;;;;14.88;5.38;;;;;;;;;;5054621;28;20053;-58
2022/01/07 12:07:59;;;;;;;10.95;4.90;;;;;;;;;;5053234;28;20099;-58
2022/01/07 12:10:25;;;;;;;9.23;4.28;;;;;;;;;;5044016;28;20099;-58
2022/01/07 12:12:58;;;;;;;11.52;3.83;;;;;;;;;;5034349;28;20041;-58
2022/01/07 12:15:24;;;;;;;9.05;4.82;;;;;;;;;;5033982;28;20091;-58
2022/01/07 12:17:50;;;;;;;11.00;3.95;;;;;;;;;;5034311;28;20053;-58
2022/01/07 12:20:47;;;;;;;9.40;3.92;;;;;;;;;;5034296;28;20057;-58
2022/01/07 12:23:19;;;;;;;8.68;3.00;;;;;;;;;;5034530;28;20045;-58
2022/01/07 12:25:48;;;;;;;8.13;3.50;;;;;;;;;;5034349;28;20054;-58
2022/01/07 12:28:14;;;;;;;9.35;3.15;;;;;;;;;;5033600;28;20049;-58
2022/01/07 12:30:41;;;;;;;10.50;3.15;;;;;;;;;;5034128;28;20447;-58
2022/01/07 12:33:08;;;;;;;8.00;2.88;;;;;;;;;;5053079;28;20049;-58
2022/01/07 12:35:36;;;;;;;6.97;2.55;;;;;;;;;;5053160;28;20588;-58
2022/01/07 12:38:09;;;;;;;8.75;3.17;;;;;;;;;;5053973;28;20057;-57
2022/01/07 12:40:36;;;;;;;10.48;3.22;;;;;;;;;;5053151;28;20134;-60
2022/01/07 12:43:02;;;;;;;13.10;3.88;;;;;;;;;;5053278;28;20075;-60
2022/01/07 12:45:28;;;;;;;9.73;3.10;;;;;;;;;;5053812;28;20099;-60
2022/01/07 12:47:54;;;;;;;8.30;3.22;;;;;;;;;;5053535;28;20061;-58
2022/01/07 12:50:22;;;;;;;12.20;3.30;;;;;;;;;;5053023;28;20132;-57
2022/01/07 12:52:50;;;;;;;11.20;3.70;;;;;;;;;;5053377;28;20068;-59
2022/01/07 12:55:18;;;;;;;11.32;3.22;;;;;;;;;;5053674;28;20045;-59
2022/01/07 12:57:46;;;;;;;8.57;3.72;;;;;;;;;;5052514;28;20140;-60
2022/01/07 13:00:14;;;;;;;9.27;3.40;;;;;;;;;;5053311;28;20167;-60
2022/01/07 13:02:42;;;;;;;11.70;3.45;;;;;;;;;;5053373;28;20163;-60
2022/01/07 13:05:12;;;;;;;11.93;3.35;;;;;;;;;;5053114;28;20549;-59
2022/01/07 13:07:40;;;;;;;8.73;2.63;;;;;;;;;;5053461;28;20099;-59
2022/01/07 13:10:08;;;;;;;10.35;2.80;;;;;;;;;;5052432;28;20053;-62
2022/01/07 13:12:34;;;;;;;8.20;2.28;;;;;;;;;;5053351;28;20483;-62
2022/01/07 13:15:00;;;;;;;7.68;2.40;;;;;;;;;;5053042;28;20107;-62
2022/01/07 13:17:28;;;;;;;7.72;1.70;;;;;;;;;;5052623;28;20519;-60
2022/01/07 13:19:54;;;;;;;6.38;1.95;;;;;;;;;;5052873;28;20045;-61
2022/01/07 13:22:23;;;;;;;3.35;1.70;;;;;;;;;;5053225;28;20124;-60
2022/01/07 13:24:50;;;;;;;9.07;1.73;;;;;;;;;;5052137;28;20049;-57
2022/01/07 13:27:17;;;;;;;5.43;1.70;;;;;;;;;;5052888;28;20483;-60
2022/01/07 13:29:46;;;;;;;5.20;1.80;;;;;;;;;;5052765;28;20094;-60
2022/01/07 13:32:13;;;;;;;6.68;1.60;;;;;;;;;;5051720;28;20581;-59
2022/01/07 13:34:40;;;;;;;7.28;1.88;;;;;;;;;;5053030;28;20041;-59
2022/01/07 13:37:08;;;;;;;4.55;1.55;;;;;;;;;;5052533;28;20095;-58
2022/01/07 13:39:38;;;;;;;4.22;1.70;;;;;;;;;;5051979;28;20514;-60
2022/01/07 13:42:05;;;;;;;3.28;1.20;;;;;;;;;;5052248;28;20457;-60
2022/01/07 13:44:46;;;;;;;5.25;1.60;;;;;;;;;;5053038;28;20049;-59
2022/01/07 13:47:19;;;;;;;5.00;1.73;;;;;;;;;;5051728;28;20459;-58
2022/01/07 13:49:47;;;;;;;4.47;1.50;;;;;;;;;;5052234;28;20425;-58
2022/01/07 13:52:13;;;;;;;5.95;1.52;;;;;;;;;;5051621;28;20398;-57
2022/01/07 13:54:40;;;;;;;4.00;1.45;;;;;;;;;;5052761;28;20130;-57
2022/01/07 13:57:08;;;;;;;6.85;1.50;;;;;;;;;;5052425;28;20049;-57
2022/01/07 13:59:42;;;;;;;5.20;1.80;;;;;;;;;;5051685;28;20049;-58
2022/01/07 14:02:09;;;;;;;6.03;2.47;;;;;;;;;;5052204;28;20047;-57
2022/01/07 14:04:42;;;;;;;7.57;2.03;;;;;;;;;;5052132;28;20056;-57
2022/01/07 14:07:21;;;;;;;6.28;2.50;;;;;;;;;;5051458;28;20049;-57
2022/01/07 14:10:00;;;;;;;5.90;2.80;;;;;;;;;;5052219;28;20076;-57
2022/01/07 14:12:26;;;;;;;6.75;2.20;;;;;;;;;;5052566;28;20044;-58
2022/01/07 14:15:03;;;;;;;4.90;2.17;;;;;;;;;;5051102;28;20056;-58
2022/01/07 14:17:30;;;;;;;5.47;2.72;;;;;;;;;;5052115;28;20047;-58
2022/01/07 14:19:56;;;;;;;5.78;2.72;;;;;;;;;;5051852;28;20068;-58
2022/01/07 14:22:23;;;;;;;5.57;2.50;;;;;;;;;;5051155;28;20057;-57
2022/01/07 14:24:49;;;;;;;6.53;2.60;;;;;;;;;;5051655;28;20045;-58
2022/01/07 14:27:24;;;;;;;7.50;2.38;;;;;;;;;;5051023;28;20045;-58
2022/01/07 14:29:50;;;;;;;5.95;2.50;;;;;;;;;;5051534;28;20044;-57
2022/01/07 14:32:18;;;;;;;6.57;2.25;;;;;;;;;;5051686;28;20117;-58
2022/01/07 14:34:44;;;;;;;7.72;2.72;;;;;;;;;;5050725;28;20087;-58
2022/01/07 14:37:11;;;;;;;5.55;2.30;;;;;;;;;;5051791;28;20098;-58
2022/01/07 14:39:37;;;;;;;6.97;2.80;;;;;;;;;;5051864;28;20495;-58
2022/01/07 14:42:03;;;;;;;6.03;2.15;;;;;;;;;;5050365;28;20049;-58
2022/01/07 14:44:30;;;;;;;6.55;2.10;;;;;;;;;;5052136;28;20049;-58
2022/01/07 14:46:56;;;;;;;4.88;2.20;;;;;;;;;;5051319;28;20102;-58